sensor_id;sensor_type;location;lat;lon;timestamp;P1;durP1;ratioP1;P2;durP2;ratioP2
3050;SDS011;1535;51.098;6.414;2023-04-01T00:01:03;12.53;;;6.10;;
3050;SDS011;1535;51.098;6.414;2023-04-01T00:03:31;7.03;;;6.47;;
3050;SDS011;1535;51.098;6.414;2023-04-01T00:05:59;6.40;;;5.90;;
3050;SDS011;1535;51.098;6.414;2023-04-01T00:08:26;6.40;;;5.67;;
3050;SDS011;1535;51.098;6.414;2023-04-01T00:10:54;7.10;;;6.40;;
3050;SDS011;1535;51.098;6.414;2023-04-01T00:13:23;6.13;;;5.83;;
3050;SDS011;1535;51.098;6.414;2023-04-01T00:15:51;5.97;;;5.57;;
3050;SDS011;1535;51.098;6.414;2023-04-01T00:18:18;5.63;;;5.33;;
3050;SDS011;1535;51.098;6.414;2023-04-01T00:20:45;5.63;;;5.33;;
3050;SDS011;1535;51.098;6.414;2023-04-01T00:23:13;5.30;;;5.00;;
3050;SDS011;1535;51.098;6.414;2023-04-01T00:25:41;6.80;;;6.17;;
3050;SDS011;1535;51.098;6.414;2023-04-01T00:28:10;6.47;;;5.90;;
3050;SDS011;1535;51.098;6.414;2023-04-01T00:30:38;6.20;;;5.60;;
3050;SDS011;1535;51.098;6.414;2023-04-01T00:33:06;6.40;;;6.00;;
3050;SDS011;1535;51.098;6.414;2023-04-01T00:35:32;6.87;;;6.30;;
3050;SDS011;1535;51.098;6.414;2023-04-01T00:37:59;6.77;;;6.23;;
3050;SDS011;1535;51.098;6.414;2023-04-01T00:40:27;5.83;;;5.60;;
3050;SDS011;1535;51.098;6.414;2023-04-01T00:42:56;6.30;;;5.80;;
3050;SDS011;1535;51.098;6.414;2023-04-01T00:45:25;6.23;;;5.70;;
3050;SDS011;1535;51.098;6.414;2023-04-01T00:48:02;5.90;;;5.37;;
3050;SDS011;1535;51.098;6.414;2023-04-01T00:50:32;7.27;;;6.77;;
3050;SDS011;1535;51.098;6.414;2023-04-01T00:53:01;6.93;;;5.80;;
3050;SDS011;1535;51.098;6.414;2023-04-01T00:55:29;6.27;;;5.50;;
3050;SDS011;1535;51.098;6.414;2023-04-01T00:57:59;5.70;;;5.10;;
3050;SDS011;1535;51.098;6.414;2023-04-01T01:00:29;6.37;;;5.67;;
3050;SDS011;1535;51.098;6.414;2023-04-01T01:02:56;6.03;;;5.63;;
3050;SDS011;1535;51.098;6.414;2023-04-01T01:05:26;6.80;;;6.10;;
3050;SDS011;1535;51.098;6.414;2023-04-01T01:08:07;6.43;;;5.47;;
3050;SDS011;1535;51.098;6.414;2023-04-01T01:10:41;6.17;;;5.57;;
3050;SDS011;1535;51.098;6.414;2023-04-01T01:13:14;5.83;;;5.43;;
3050;SDS011;1535;51.098;6.414;2023-04-01T01:15:49;5.87;;;5.50;;
3050;SDS011;1535;51.098;6.414;2023-04-01T01:18:23;6.60;;;6.10;;
3050;SDS011;1535;51.098;6.414;2023-04-01T01:21:09;6.23;;;5.83;;
3050;SDS011;1535;51.098;6.414;2023-04-01T01:24:11;6.33;;;5.60;;
3050;SDS011;1535;51.098;6.414;2023-04-01T01:26:59;5.63;;;5.27;;
3050;SDS011;1535;51.098;6.414;2023-04-01T01:29:35;5.93;;;5.63;;
3050;SDS011;1535;51.098;6.414;2023-04-01T01:32:13;5.80;;;5.40;;
3050;SDS011;1535;51.098;6.414;2023-04-01T01:34:48;5.67;;;5.47;;
3050;SDS011;1535;51.098;6.414;2023-04-01T01:37:22;7.33;;;5.57;;
3050;SDS011;1535;51.098;6.414;2023-04-01T01:39:54;17.73;;;5.77;;
3050;SDS011;1535;51.098;6.414;2023-04-01T01:42:23;6.10;;;5.80;;
3050;SDS011;1535;51.098;6.414;2023-04-01T01:44:53;5.60;;;5.23;;
3050;SDS011;1535;51.098;6.414;2023-04-01T01:47:23;8.20;;;5.37;;
3050;SDS011;1535;51.098;6.414;2023-04-01T01:49:51;6.70;;;5.43;;
3050;SDS011;1535;51.098;6.414;2023-04-01T01:52:22;16.40;;;4.97;;
3050;SDS011;1535;51.098;6.414;2023-04-01T01:54:50;20.07;;;5.53;;
3050;SDS011;1535;51.098;6.414;2023-04-01T01:57:21;15.93;;;5.10;;
3050;SDS011;1535;51.098;6.414;2023-04-01T01:59:51;4.83;;;4.30;;
3050;SDS011;1535;51.098;6.414;2023-04-01T02:02:22;5.40;;;4.33;;
3050;SDS011;1535;51.098;6.414;2023-04-01T02:04:49;4.37;;;4.10;;
3050;SDS011;1535;51.098;6.414;2023-04-01T02:07:18;5.13;;;4.00;;
3050;SDS011;1535;51.098;6.414;2023-04-01T02:09:49;4.70;;;4.30;;
3050;SDS011;1535;51.098;6.414;2023-04-01T02:12:16;4.20;;;3.90;;
3050;SDS011;1535;51.098;6.414;2023-04-01T02:14:45;5.53;;;3.90;;
3050;SDS011;1535;51.098;6.414;2023-04-01T02:17:18;4.57;;;4.37;;
3050;SDS011;1535;51.098;6.414;2023-04-01T02:19:47;8.23;;;4.23;;
3050;SDS011;1535;51.098;6.414;2023-04-01T02:22:18;4.43;;;4.23;;
3050;SDS011;1535;51.098;6.414;2023-04-01T02:24:48;5.00;;;3.80;;
3050;SDS011;1535;51.098;6.414;2023-04-01T02:27:19;4.30;;;4.00;;
3050;SDS011;1535;51.098;6.414;2023-04-01T02:29:46;3.87;;;3.67;;
3050;SDS011;1535;51.098;6.414;2023-04-01T02:32:13;4.47;;;4.17;;
3050;SDS011;1535;51.098;6.414;2023-04-01T02:34:42;4.57;;;4.17;;
3050;SDS011;1535;51.098;6.414;2023-04-01T02:37:10;4.50;;;4.10;;
3050;SDS011;1535;51.098;6.414;2023-04-01T02:39:39;4.90;;;4.60;;
3050;SDS011;1535;51.098;6.414;2023-04-01T02:42:09;4.60;;;4.40;;
3050;SDS011;1535;51.098;6.414;2023-04-01T02:44:36;4.90;;;4.23;;
3050;SDS011;1535;51.098;6.414;2023-04-01T02:47:03;5.20;;;4.90;;
3050;SDS011;1535;51.098;6.414;2023-04-01T02:49:30;4.50;;;4.30;;
3050;SDS011;1535;51.098;6.414;2023-04-01T02:51:57;4.73;;;4.53;;
3050;SDS011;1535;51.098;6.414;2023-04-01T02:54:24;4.00;;;3.90;;
3050;SDS011;1535;51.098;6.414;2023-04-01T02:56:51;4.40;;;4.30;;
3050;SDS011;1535;51.098;6.414;2023-04-01T02:59:21;4.80;;;4.60;;
3050;SDS011;1535;51.098;6.414;2023-04-01T03:01:47;4.27;;;4.07;;
3050;SDS011;1535;51.098;6.414;2023-04-01T03:04:15;4.43;;;4.13;;
3050;SDS011;1535;51.098;6.414;2023-04-01T03:06:42;4.57;;;4.37;;
3050;SDS011;1535;51.098;6.414;2023-04-01T03:09:09;4.77;;;4.47;;
3050;SDS011;1535;51.098;6.414;2023-04-01T03:11:36;4.10;;;3.90;;
3050;SDS011;1535;51.098;6.414;2023-04-01T03:14:03;4.40;;;4.10;;
3050;SDS011;1535;51.098;6.414;2023-04-01T03:16:33;4.80;;;4.60;;
3050;SDS011;1535;51.098;6.414;2023-04-01T03:19:00;4.50;;;4.30;;
3050;SDS011;1535;51.098;6.414;2023-04-01T03:21:27;4.70;;;4.47;;
3050;SDS011;1535;51.098;6.414;2023-04-01T03:23:54;4.93;;;4.53;;
3050;SDS011;1535;51.098;6.414;2023-04-01T03:26:21;4.10;;;3.80;;
3050;SDS011;1535;51.098;6.414;2023-04-01T03:28:48;4.50;;;4.30;;
3050;SDS011;1535;51.098;6.414;2023-04-01T03:31:15;3.97;;;3.67;;
3050;SDS011;1535;51.098;6.414;2023-04-01T03:33:44;4.03;;;3.83;;
3050;SDS011;1535;51.098;6.414;2023-04-01T03:36:11;4.10;;;3.87;;
3050;SDS011;1535;51.098;6.414;2023-04-01T03:38:38;4.37;;;4.20;;
3050;SDS011;1535;51.098;6.414;2023-04-01T03:41:06;4.53;;;4.30;;
3050;SDS011;1535;51.098;6.414;2023-04-01T03:43:33;4.07;;;3.87;;
3050;SDS011;1535;51.098;6.414;2023-04-01T03:46:00;3.70;;;3.53;;
3050;SDS011;1535;51.098;6.414;2023-04-01T03:48:27;4.10;;;3.90;;
3050;SDS011;1535;51.098;6.414;2023-04-01T03:50:56;4.40;;;4.00;;
3050;SDS011;1535;51.098;6.414;2023-04-01T03:53:22;4.27;;;3.97;;
3050;SDS011;1535;51.098;6.414;2023-04-01T03:55:49;4.53;;;4.23;;
3050;SDS011;1535;51.098;6.414;2023-04-01T03:58:17;4.23;;;4.03;;
3050;SDS011;1535;51.098;6.414;2023-04-01T04:00:43;4.50;;;4.27;;
3050;SDS011;1535;51.098;6.414;2023-04-01T04:03:11;4.23;;;3.93;;
3050;SDS011;1535;51.098;6.414;2023-04-01T04:05:37;4.40;;;4.10;;
3050;SDS011;1535;51.098;6.414;2023-04-01T04:08:13;3.80;;;3.70;;
3050;SDS011;1535;51.098;6.414;2023-04-01T04:10:41;4.37;;;4.00;;
3050;SDS011;1535;51.098;6.414;2023-04-01T04:13:08;3.60;;;3.50;;
3050;SDS011;1535;51.098;6.414;2023-04-01T04:15:35;3.70;;;3.50;;
3050;SDS011;1535;51.098;6.414;2023-04-01T04:18:02;4.33;;;4.03;;
3050;SDS011;1535;51.098;6.414;2023-04-01T04:20:30;3.70;;;3.60;;
3050;SDS011;1535;51.098;6.414;2023-04-01T04:22:57;4.30;;;4.00;;
3050;SDS011;1535;51.098;6.414;2023-04-01T04:25:27;3.77;;;3.67;;
3050;SDS011;1535;51.098;6.414;2023-04-01T04:27:54;7.10;;;3.87;;
3050;SDS011;1535;51.098;6.414;2023-04-01T04:30:21;3.90;;;3.70;;
3050;SDS011;1535;51.098;6.414;2023-04-01T04:32:48;3.70;;;3.60;;
3050;SDS011;1535;51.098;6.414;2023-04-01T04:35:16;4.80;;;4.50;;
3050;SDS011;1535;51.098;6.414;2023-04-01T04:37:42;4.30;;;4.10;;
3050;SDS011;1535;51.098;6.414;2023-04-01T04:40:09;4.47;;;4.20;;
3050;SDS011;1535;51.098;6.414;2023-04-01T04:42:38;4.40;;;4.20;;
3050;SDS011;1535;51.098;6.414;2023-04-01T04:45:05;4.57;;;4.27;;
3050;SDS011;1535;51.098;6.414;2023-04-01T04:47:32;5.10;;;4.70;;
3050;SDS011;1535;51.098;6.414;2023-04-01T04:50:00;5.03;;;4.60;;
3050;SDS011;1535;51.098;6.414;2023-04-01T04:52:27;6.07;;;5.57;;
3050;SDS011;1535;51.098;6.414;2023-04-01T04:54:53;4.30;;;4.07;;
3050;SDS011;1535;51.098;6.414;2023-04-01T04:57:20;4.23;;;3.97;;
3050;SDS011;1535;51.098;6.414;2023-04-01T04:59:49;3.77;;;3.57;;
3050;SDS011;1535;51.098;6.414;2023-04-01T05:02:16;4.40;;;4.10;;
3050;SDS011;1535;51.098;6.414;2023-04-01T05:04:43;4.63;;;4.33;;
3050;SDS011;1535;51.098;6.414;2023-04-01T05:07:10;3.87;;;3.50;;
3050;SDS011;1535;51.098;6.414;2023-04-01T05:09:38;12.93;;;4.60;;
3050;SDS011;1535;51.098;6.414;2023-04-01T05:12:04;4.60;;;4.20;;
3050;SDS011;1535;51.098;6.414;2023-04-01T05:14:31;5.10;;;4.60;;
3050;SDS011;1535;51.098;6.414;2023-04-01T05:17:00;4.47;;;4.20;;
3050;SDS011;1535;51.098;6.414;2023-04-01T05:19:26;4.63;;;4.33;;
3050;SDS011;1535;51.098;6.414;2023-04-01T05:21:53;4.73;;;4.43;;
3050;SDS011;1535;51.098;6.414;2023-04-01T05:24:20;4.33;;;4.03;;
3050;SDS011;1535;51.098;6.414;2023-04-01T05:26:47;5.00;;;4.70;;
3050;SDS011;1535;51.098;6.414;2023-04-01T05:29:14;5.10;;;4.70;;
3050;SDS011;1535;51.098;6.414;2023-04-01T05:31:41;5.40;;;5.00;;
3050;SDS011;1535;51.098;6.414;2023-04-01T05:34:10;5.10;;;4.80;;
3050;SDS011;1535;51.098;6.414;2023-04-01T05:36:36;4.87;;;4.50;;
3050;SDS011;1535;51.098;6.414;2023-04-01T05:39:03;5.43;;;5.13;;
3050;SDS011;1535;51.098;6.414;2023-04-01T05:41:31;6.60;;;5.43;;
3050;SDS011;1535;51.098;6.414;2023-04-01T05:44:01;5.83;;;5.43;;
3050;SDS011;1535;51.098;6.414;2023-04-01T05:46:28;4.23;;;3.93;;
3050;SDS011;1535;51.098;6.414;2023-04-01T05:48:55;6.43;;;5.83;;
3050;SDS011;1535;51.098;6.414;2023-04-01T05:51:23;6.23;;;5.73;;
3050;SDS011;1535;51.098;6.414;2023-04-01T05:53:51;6.07;;;5.60;;
3050;SDS011;1535;51.098;6.414;2023-04-01T05:56:18;7.00;;;6.13;;
3050;SDS011;1535;51.098;6.414;2023-04-01T05:58:46;8.10;;;6.07;;
3050;SDS011;1535;51.098;6.414;2023-04-01T06:01:17;6.90;;;6.20;;
3050;SDS011;1535;51.098;6.414;2023-04-01T06:03:44;7.33;;;6.63;;
3050;SDS011;1535;51.098;6.414;2023-04-01T06:06:11;6.40;;;5.90;;
3050;SDS011;1535;51.098;6.414;2023-04-01T06:08:42;9.73;;;7.17;;
3050;SDS011;1535;51.098;6.414;2023-04-01T06:11:16;6.70;;;6.20;;
3050;SDS011;1535;51.098;6.414;2023-04-01T06:13:57;6.37;;;5.87;;
3050;SDS011;1535;51.098;6.414;2023-04-01T06:16:36;6.20;;;5.77;;
3050;SDS011;1535;51.098;6.414;2023-04-01T06:19:19;5.77;;;5.33;;
3050;SDS011;1535;51.098;6.414;2023-04-01T06:25:20;6.70;;;6.30;;
3050;SDS011;1535;51.098;6.414;2023-04-01T06:28:07;6.30;;;5.83;;
3050;SDS011;1535;51.098;6.414;2023-04-01T06:30:52;6.50;;;6.10;;
3050;SDS011;1535;51.098;6.414;2023-04-01T06:33:29;6.27;;;5.87;;
3050;SDS011;1535;51.098;6.414;2023-04-01T06:36:15;7.40;;;6.80;;
3050;SDS011;1535;51.098;6.414;2023-04-01T06:39:08;9.37;;;7.10;;
3050;SDS011;1535;51.098;6.414;2023-04-01T06:41:58;7.70;;;7.10;;
3050;SDS011;1535;51.098;6.414;2023-04-01T06:44:52;7.37;;;5.80;;
3050;SDS011;1535;51.098;6.414;2023-04-01T06:47:34;6.83;;;6.23;;
3050;SDS011;1535;51.098;6.414;2023-04-01T06:50:12;6.70;;;6.00;;
3050;SDS011;1535;51.098;6.414;2023-04-01T06:52:47;9.83;;;5.60;;
3050;SDS011;1535;51.098;6.414;2023-04-01T06:55:24;6.70;;;6.10;;
3050;SDS011;1535;51.098;6.414;2023-04-01T06:57:57;10.90;;;6.53;;
3050;SDS011;1535;51.098;6.414;2023-04-01T07:00:27;7.63;;;6.23;;
3050;SDS011;1535;51.098;6.414;2023-04-01T07:03:00;6.00;;;5.50;;
3050;SDS011;1535;51.098;6.414;2023-04-01T07:05:33;7.20;;;6.50;;
3050;SDS011;1535;51.098;6.414;2023-04-01T07:08:01;10.27;;;6.97;;
3050;SDS011;1535;51.098;6.414;2023-04-01T07:10:33;9.73;;;6.80;;
3050;SDS011;1535;51.098;6.414;2023-04-01T07:13:09;7.73;;;7.03;;
3050;SDS011;1535;51.098;6.414;2023-04-01T07:15:42;7.50;;;6.53;;
3050;SDS011;1535;51.098;6.414;2023-04-01T07:18:12;6.90;;;6.30;;
3050;SDS011;1535;51.098;6.414;2023-04-01T07:20:42;6.20;;;5.70;;
3050;SDS011;1535;51.098;6.414;2023-04-01T07:23:11;19.53;;;7.47;;
3050;SDS011;1535;51.098;6.414;2023-04-01T07:25:47;12.97;;;7.23;;
3050;SDS011;1535;51.098;6.414;2023-04-01T07:28:19;21.93;;;7.17;;
3050;SDS011;1535;51.098;6.414;2023-04-01T07:30:49;9.27;;;6.40;;
3050;SDS011;1535;51.098;6.414;2023-04-01T07:33:24;7.57;;;6.77;;
3050;SDS011;1535;51.098;6.414;2023-04-01T07:35:55;8.63;;;7.60;;
3050;SDS011;1535;51.098;6.414;2023-04-01T07:38:27;6.70;;;6.10;;
3050;SDS011;1535;51.098;6.414;2023-04-01T07:41:04;6.17;;;5.63;;
3050;SDS011;1535;51.098;6.414;2023-04-01T07:43:46;6.90;;;6.30;;
3050;SDS011;1535;51.098;6.414;2023-04-01T07:46:23;7.03;;;6.40;;
3050;SDS011;1535;51.098;6.414;2023-04-01T07:49:01;8.30;;;7.27;;
3050;SDS011;1535;51.098;6.414;2023-04-01T07:51:35;7.53;;;6.93;;
3050;SDS011;1535;51.098;6.414;2023-04-01T07:54:08;8.23;;;7.53;;
3050;SDS011;1535;51.098;6.414;2023-04-01T07:56:40;6.20;;;5.70;;
3050;SDS011;1535;51.098;6.414;2023-04-01T07:59:15;5.40;;;5.10;;
3050;SDS011;1535;51.098;6.414;2023-04-01T08:01:49;6.10;;;5.60;;
3050;SDS011;1535;51.098;6.414;2023-04-01T08:04:30;6.10;;;5.70;;
3050;SDS011;1535;51.098;6.414;2023-04-01T08:07:08;6.47;;;6.07;;
3050;SDS011;1535;51.098;6.414;2023-04-01T08:09:41;6.03;;;5.50;;
3050;SDS011;1535;51.098;6.414;2023-04-01T08:12:18;5.40;;;5.00;;
3050;SDS011;1535;51.098;6.414;2023-04-01T08:14:58;5.20;;;4.90;;
3050;SDS011;1535;51.098;6.414;2023-04-01T08:17:35;4.87;;;4.57;;
3050;SDS011;1535;51.098;6.414;2023-04-01T08:22:57;6.17;;;5.70;;
3050;SDS011;1535;51.098;6.414;2023-04-01T08:25:27;6.57;;;5.60;;
3050;SDS011;1535;51.098;6.414;2023-04-01T08:27:56;5.60;;;5.20;;
3050;SDS011;1535;51.098;6.414;2023-04-01T08:30:32;5.33;;;4.93;;
3050;SDS011;1535;51.098;6.414;2023-04-01T08:33:09;6.33;;;5.83;;
3050;SDS011;1535;51.098;6.414;2023-04-01T08:35:40;5.47;;;5.10;;
3050;SDS011;1535;51.098;6.414;2023-04-01T08:38:13;4.70;;;4.50;;
3050;SDS011;1535;51.098;6.414;2023-04-01T08:40:55;5.10;;;4.80;;
3050;SDS011;1535;51.098;6.414;2023-04-01T08:43:34;5.10;;;4.80;;
3050;SDS011;1535;51.098;6.414;2023-04-01T08:46:15;4.70;;;4.40;;
3050;SDS011;1535;51.098;6.414;2023-04-01T08:49:07;4.97;;;4.50;;
3050;SDS011;1535;51.098;6.414;2023-04-01T08:51:47;4.60;;;4.30;;
3050;SDS011;1535;51.098;6.414;2023-04-01T08:54:38;4.93;;;4.63;;
3050;SDS011;1535;51.098;6.414;2023-04-01T08:57:15;5.87;;;5.47;;
3050;SDS011;1535;51.098;6.414;2023-04-01T08:59:54;6.03;;;5.63;;
3050;SDS011;1535;51.098;6.414;2023-04-01T09:02:44;7.23;;;6.73;;
3050;SDS011;1535;51.098;6.414;2023-04-01T09:05:31;7.83;;;7.20;;
3050;SDS011;1535;51.098;6.414;2023-04-01T09:08:08;7.83;;;7.23;;
3050;SDS011;1535;51.098;6.414;2023-04-01T09:10:56;8.10;;;7.40;;
3050;SDS011;1535;51.098;6.414;2023-04-01T09:13:36;6.77;;;6.37;;
3050;SDS011;1535;51.098;6.414;2023-04-01T09:16:50;8.10;;;7.57;;
3050;SDS011;1535;51.098;6.414;2023-04-01T09:19:40;7.40;;;6.80;;
3050;SDS011;1535;51.098;6.414;2023-04-01T09:22:24;8.67;;;7.97;;
3050;SDS011;1535;51.098;6.414;2023-04-01T09:28:07;8.90;;;8.20;;
3050;SDS011;1535;51.098;6.414;2023-04-01T09:30:46;9.43;;;8.60;;
3050;SDS011;1535;51.098;6.414;2023-04-01T09:36:50;8.20;;;7.60;;
3050;SDS011;1535;51.098;6.414;2023-04-01T09:39:35;7.97;;;7.10;;
3050;SDS011;1535;51.098;6.414;2023-04-01T09:42:07;9.80;;;8.97;;
3050;SDS011;1535;51.098;6.414;2023-04-01T09:44:51;8.77;;;7.63;;
3050;SDS011;1535;51.098;6.414;2023-04-01T09:47:43;7.37;;;6.97;;
3050;SDS011;1535;51.098;6.414;2023-04-01T09:50:35;8.10;;;7.60;;
3050;SDS011;1535;51.098;6.414;2023-04-01T09:53:18;9.33;;;8.07;;
3050;SDS011;1535;51.098;6.414;2023-04-01T09:56:04;7.30;;;6.70;;
3050;SDS011;1535;51.098;6.414;2023-04-01T10:02:05;8.50;;;7.77;;
3050;SDS011;1535;51.098;6.414;2023-04-01T10:04:56;8.53;;;7.93;;
3050;SDS011;1535;51.098;6.414;2023-04-01T10:07:59;9.00;;;8.30;;
3050;SDS011;1535;51.098;6.414;2023-04-01T10:10:56;9.07;;;8.27;;
3050;SDS011;1535;51.098;6.414;2023-04-01T10:13:48;9.03;;;8.40;;
3050;SDS011;1535;51.098;6.414;2023-04-01T10:16:46;8.33;;;7.73;;
3050;SDS011;1535;51.098;6.414;2023-04-01T10:25:40;9.70;;;8.90;;
3050;SDS011;1535;51.098;6.414;2023-04-01T10:28:33;9.20;;;8.33;;
3050;SDS011;1535;51.098;6.414;2023-04-01T10:34:26;8.20;;;7.50;;
3050;SDS011;1535;51.098;6.414;2023-04-01T10:37:15;7.63;;;7.13;;
3050;SDS011;1535;51.098;6.414;2023-04-01T10:46:41;9.20;;;8.30;;
3050;SDS011;1535;51.098;6.414;2023-04-01T10:52:38;9.10;;;8.30;;
3050;SDS011;1535;51.098;6.414;2023-04-01T10:55:43;9.53;;;8.17;;
3050;SDS011;1535;51.098;6.414;2023-04-01T10:58:34;10.23;;;9.27;;
3050;SDS011;1535;51.098;6.414;2023-04-01T11:01:37;8.90;;;8.10;;
3050;SDS011;1535;51.098;6.414;2023-04-01T11:04:46;10.60;;;9.43;;
3050;SDS011;1535;51.098;6.414;2023-04-01T11:11:04;10.93;;;8.80;;
3050;SDS011;1535;51.098;6.414;2023-04-01T11:20:31;8.70;;;7.07;;
3050;SDS011;1535;51.098;6.414;2023-04-01T11:23:19;10.73;;;8.07;;
3050;SDS011;1535;51.098;6.414;2023-04-01T11:26:15;8.00;;;7.00;;
3050;SDS011;1535;51.098;6.414;2023-04-01T11:28:59;8.57;;;7.77;;
3050;SDS011;1535;51.098;6.414;2023-04-01T11:31:40;8.23;;;7.53;;
3050;SDS011;1535;51.098;6.414;2023-04-01T11:34:16;8.67;;;7.87;;
3050;SDS011;1535;51.098;6.414;2023-04-01T11:36:59;7.50;;;6.70;;
3050;SDS011;1535;51.098;6.414;2023-04-01T11:39:36;6.93;;;6.33;;
3050;SDS011;1535;51.098;6.414;2023-04-01T11:42:14;6.83;;;6.13;;
3050;SDS011;1535;51.098;6.414;2023-04-01T11:44:51;7.50;;;6.80;;
3050;SDS011;1535;51.098;6.414;2023-04-01T11:47:30;8.00;;;7.30;;
3050;SDS011;1535;51.098;6.414;2023-04-01T11:50:21;7.20;;;6.50;;
3050;SDS011;1535;51.098;6.414;2023-04-01T11:55:58;8.33;;;6.63;;
3050;SDS011;1535;51.098;6.414;2023-04-01T11:58:52;8.73;;;7.93;;
3050;SDS011;1535;51.098;6.414;2023-04-01T12:01:43;7.23;;;6.63;;
3050;SDS011;1535;51.098;6.414;2023-04-01T12:04:32;8.70;;;6.93;;
3050;SDS011;1535;51.098;6.414;2023-04-01T12:07:15;7.00;;;6.40;;
3050;SDS011;1535;51.098;6.414;2023-04-01T12:09:51;9.77;;;6.90;;
3050;SDS011;1535;51.098;6.414;2023-04-01T12:12:27;6.63;;;5.97;;
3050;SDS011;1535;51.098;6.414;2023-04-01T12:15:11;6.73;;;6.10;;
3050;SDS011;1535;51.098;6.414;2023-04-01T12:17:48;7.30;;;6.60;;
3050;SDS011;1535;51.098;6.414;2023-04-01T12:20:26;7.07;;;6.57;;
3050;SDS011;1535;51.098;6.414;2023-04-01T12:23:03;6.83;;;6.17;;
3050;SDS011;1535;51.098;6.414;2023-04-01T12:25:48;7.80;;;7.10;;
3050;SDS011;1535;51.098;6.414;2023-04-01T12:28:29;6.43;;;5.90;;
3050;SDS011;1535;51.098;6.414;2023-04-01T12:31:13;8.20;;;7.50;;
3050;SDS011;1535;51.098;6.414;2023-04-01T12:33:52;8.40;;;7.53;;
3050;SDS011;1535;51.098;6.414;2023-04-01T12:36:42;8.40;;;7.60;;
3050;SDS011;1535;51.098;6.414;2023-04-01T12:39:22;6.87;;;6.27;;
3050;SDS011;1535;51.098;6.414;2023-04-01T12:42:02;8.47;;;7.87;;
3050;SDS011;1535;51.098;6.414;2023-04-01T12:44:52;9.33;;;8.63;;
3050;SDS011;1535;51.098;6.414;2023-04-01T12:47:39;9.30;;;8.57;;
3050;SDS011;1535;51.098;6.414;2023-04-01T12:50:31;10.13;;;9.43;;
3050;SDS011;1535;51.098;6.414;2023-04-01T12:53:13;9.27;;;8.60;;
3050;SDS011;1535;51.098;6.414;2023-04-01T12:55:50;11.30;;;10.30;;
3050;SDS011;1535;51.098;6.414;2023-04-01T12:58:30;11.20;;;10.30;;
3050;SDS011;1535;51.098;6.414;2023-04-01T13:01:23;10.83;;;10.03;;
3050;SDS011;1535;51.098;6.414;2023-04-01T13:04:11;12.63;;;11.70;;
3050;SDS011;1535;51.098;6.414;2023-04-01T13:10:01;11.30;;;10.40;;
3050;SDS011;1535;51.098;6.414;2023-04-01T13:12:36;12.70;;;11.70;;
3050;SDS011;1535;51.098;6.414;2023-04-01T13:15:24;12.33;;;10.63;;
3050;SDS011;1535;51.098;6.414;2023-04-01T13:17:57;11.50;;;10.33;;
3050;SDS011;1535;51.098;6.414;2023-04-01T13:20:35;11.07;;;10.27;;
3050;SDS011;1535;51.098;6.414;2023-04-01T13:23:12;10.80;;;9.90;;
3050;SDS011;1535;51.098;6.414;2023-04-01T13:25:47;10.47;;;9.57;;
3050;SDS011;1535;51.098;6.414;2023-04-01T13:28:21;10.10;;;9.40;;
3050;SDS011;1535;51.098;6.414;2023-04-01T13:30:55;10.77;;;9.97;;
3050;SDS011;1535;51.098;6.414;2023-04-01T13:33:30;9.93;;;9.33;;
3050;SDS011;1535;51.098;6.414;2023-04-01T13:36:09;10.00;;;9.20;;
3050;SDS011;1535;51.098;6.414;2023-04-01T13:38:53;10.63;;;9.63;;
3050;SDS011;1535;51.098;6.414;2023-04-01T13:41:47;9.70;;;9.00;;
3050;SDS011;1535;51.098;6.414;2023-04-01T13:44:25;9.63;;;8.93;;
3050;SDS011;1535;51.098;6.414;2023-04-01T13:47:03;10.77;;;9.97;;
3050;SDS011;1535;51.098;6.414;2023-04-01T13:53:06;10.10;;;9.30;;
3050;SDS011;1535;51.098;6.414;2023-04-01T13:55:53;8.97;;;8.27;;
3050;SDS011;1535;51.098;6.414;2023-04-01T13:58:27;9.40;;;8.80;;
3050;SDS011;1535;51.098;6.414;2023-04-01T14:01:05;8.80;;;8.20;;
3050;SDS011;1535;51.098;6.414;2023-04-01T14:03:44;9.77;;;9.17;;
3050;SDS011;1535;51.098;6.414;2023-04-01T14:06:23;8.60;;;8.10;;
3050;SDS011;1535;51.098;6.414;2023-04-01T14:12:09;10.27;;;9.57;;
3050;SDS011;1535;51.098;6.414;2023-04-01T14:14:47;10.70;;;9.80;;
3050;SDS011;1535;51.098;6.414;2023-04-01T14:17:36;11.87;;;10.50;;
3050;SDS011;1535;51.098;6.414;2023-04-01T14:20:20;11.70;;;10.80;;
3050;SDS011;1535;51.098;6.414;2023-04-01T14:22:56;13.43;;;10.37;;
3050;SDS011;1535;51.098;6.414;2023-04-01T14:25:41;11.50;;;10.50;;
3050;SDS011;1535;51.098;6.414;2023-04-01T14:28:22;13.33;;;12.13;;
3050;SDS011;1535;51.098;6.414;2023-04-01T14:31:04;11.20;;;10.30;;
3050;SDS011;1535;51.098;6.414;2023-04-01T14:34:00;12.50;;;11.50;;
3050;SDS011;1535;51.098;6.414;2023-04-01T14:36:43;12.70;;;11.30;;
3050;SDS011;1535;51.098;6.414;2023-04-01T14:42:17;11.30;;;10.40;;
3050;SDS011;1535;51.098;6.414;2023-04-01T14:47:58;12.90;;;11.80;;
3050;SDS011;1535;51.098;6.414;2023-04-01T14:50:40;11.70;;;10.70;;
3050;SDS011;1535;51.098;6.414;2023-04-01T14:53:16;10.80;;;10.00;;
3050;SDS011;1535;51.098;6.414;2023-04-01T14:55:53;13.00;;;11.90;;
3050;SDS011;1535;51.098;6.414;2023-04-01T14:58:22;13.33;;;12.33;;
3050;SDS011;1535;51.098;6.414;2023-04-01T15:00:55;13.00;;;11.90;;
3050;SDS011;1535;51.098;6.414;2023-04-01T15:03:32;12.53;;;11.53;;
3050;SDS011;1535;51.098;6.414;2023-04-01T15:06:14;11.87;;;10.87;;
3050;SDS011;1535;51.098;6.414;2023-04-01T15:09:05;12.77;;;11.70;;
3050;SDS011;1535;51.098;6.414;2023-04-01T15:11:44;12.67;;;11.50;;
3050;SDS011;1535;51.098;6.414;2023-04-01T15:14:19;12.20;;;11.10;;
3050;SDS011;1535;51.098;6.414;2023-04-01T15:16:55;13.87;;;9.77;;
3050;SDS011;1535;51.098;6.414;2023-04-01T15:19:38;12.27;;;10.97;;
3050;SDS011;1535;51.098;6.414;2023-04-01T15:25:21;11.43;;;10.53;;
3050;SDS011;1535;51.098;6.414;2023-04-01T15:27:57;11.63;;;10.63;;
3050;SDS011;1535;51.098;6.414;2023-04-01T15:30:32;10.50;;;9.60;;
3050;SDS011;1535;51.098;6.414;2023-04-01T15:33:14;11.70;;;10.70;;
3050;SDS011;1535;51.098;6.414;2023-04-01T15:35:50;11.97;;;10.97;;
3050;SDS011;1535;51.098;6.414;2023-04-01T15:38:26;9.27;;;8.67;;
3050;SDS011;1535;51.098;6.414;2023-04-01T15:41:02;10.23;;;9.53;;
3050;SDS011;1535;51.098;6.414;2023-04-01T15:43:39;10.63;;;9.83;;
3050;SDS011;1535;51.098;6.414;2023-04-01T15:46:13;10.97;;;9.97;;
3050;SDS011;1535;51.098;6.414;2023-04-01T15:48:50;9.90;;;9.20;;
3050;SDS011;1535;51.098;6.414;2023-04-01T15:51:35;9.40;;;8.60;;
3050;SDS011;1535;51.098;6.414;2023-04-01T15:54:28;9.67;;;8.77;;
3050;SDS011;1535;51.098;6.414;2023-04-01T15:57:28;9.40;;;8.70;;
3050;SDS011;1535;51.098;6.414;2023-04-01T16:00:02;9.80;;;9.10;;
3050;SDS011;1535;51.098;6.414;2023-04-01T16:02:39;11.00;;;9.53;;
3050;SDS011;1535;51.098;6.414;2023-04-01T16:05:11;9.70;;;8.90;;
3050;SDS011;1535;51.098;6.414;2023-04-01T16:07:59;9.60;;;8.70;;
3050;SDS011;1535;51.098;6.414;2023-04-01T16:10:44;8.67;;;8.03;;
3050;SDS011;1535;51.098;6.414;2023-04-01T16:13:23;9.53;;;8.73;;
3050;SDS011;1535;51.098;6.414;2023-04-01T16:15:59;10.53;;;9.53;;
3050;SDS011;1535;51.098;6.414;2023-04-01T16:18:38;8.73;;;8.03;;
3050;SDS011;1535;51.098;6.414;2023-04-01T16:21:21;9.03;;;8.33;;
3050;SDS011;1535;51.098;6.414;2023-04-01T16:24:01;9.57;;;8.80;;
3050;SDS011;1535;51.098;6.414;2023-04-01T16:26:33;9.33;;;8.53;;
3050;SDS011;1535;51.098;6.414;2023-04-01T16:29:08;8.20;;;7.57;;
3050;SDS011;1535;51.098;6.414;2023-04-01T16:31:42;9.03;;;8.23;;
3050;SDS011;1535;51.098;6.414;2023-04-01T16:34:16;9.23;;;8.43;;
3050;SDS011;1535;51.098;6.414;2023-04-01T16:36:47;9.13;;;8.43;;
3050;SDS011;1535;51.098;6.414;2023-04-01T16:39:25;9.50;;;8.80;;
3050;SDS011;1535;51.098;6.414;2023-04-01T16:42:11;8.60;;;7.90;;
3050;SDS011;1535;51.098;6.414;2023-04-01T16:44:49;8.10;;;7.50;;
3050;SDS011;1535;51.098;6.414;2023-04-01T16:47:20;8.77;;;7.83;;
3050;SDS011;1535;51.098;6.414;2023-04-01T16:49:54;8.67;;;7.87;;
3050;SDS011;1535;51.098;6.414;2023-04-01T16:52:36;9.10;;;8.37;;
3050;SDS011;1535;51.098;6.414;2023-04-01T16:55:18;8.10;;;7.50;;
3050;SDS011;1535;51.098;6.414;2023-04-01T16:57:48;19.43;;;8.20;;
3050;SDS011;1535;51.098;6.414;2023-04-01T17:00:22;8.23;;;7.63;;
3050;SDS011;1535;51.098;6.414;2023-04-01T17:02:54;7.90;;;7.30;;
3050;SDS011;1535;51.098;6.414;2023-04-01T17:05:39;8.00;;;7.40;;
3050;SDS011;1535;51.098;6.414;2023-04-01T17:08:17;8.33;;;7.73;;
3050;SDS011;1535;51.098;6.414;2023-04-01T17:10:53;7.70;;;7.10;;
3050;SDS011;1535;51.098;6.414;2023-04-01T17:13:31;7.47;;;6.87;;